Time,TemperatureF,DewpointF,PressureIn,WindDirection,WindDirectionDegrees,WindSpeedMPH,WindSpeedGustMPH,Humidity,HourlyPrecipIn,Conditions,Clouds,dailyrainin,SoftwareType,DateUTC
2013-01-30 00:04:00,43.7,37.3,-100.00,North,-999,-999.0,-999.0,78,0.00,,,0.00,WSDL version 423,2013-01-30 05:04:00,
2013-01-30 00:10:00,43.7,37.3,-100.00,North,-999,-999.0,-999.0,78,0.00,,,0.00,WSDL version 423,2013-01-30 05:10:00,
2013-01-30 00:16:00,43.7,37.5,-100.00,North,-999,-999.0,-999.0,79,0.00,,,0.00,WSDL version 423,2013-01-30 05:16:00,
2013-01-30 00:22:00,43.7,37.6,-100.00,NW,315,0.9,0.9,79,0.00,,,0.00,WSDL version 423,2013-01-30 05:22:00,
2013-01-30 00:28:00,43.9,37.8,-100.00,NW,315,0.0,0.9,79,0.00,,,0.00,WSDL version 423,2013-01-30 05:28:00,
2013-01-30 00:31:00,43.9,37.8,-100.00,North,-999,-999.0,-999.0,79,0.00,,,0.00,WSDL version 423,2013-01-30 05:31:00,
2013-01-30 00:37:00,44.1,38.0,-100.00,North,-999,-999.0,-999.0,79,-99.99,,,-99.99,WSDL version 423,2013-01-30 05:37:00,
2013-01-30 00:40:00,44.1,38.0,-100.00,North,-999,-999.0,-999.0,79,0.00,,,0.00,WSDL version 423,2013-01-30 05:40:00,
2013-01-30 00:46:00,44.1,38.0,-100.00,North,-999,-999.0,-999.0,79,0.00,,,0.00,WSDL version 423,2013-01-30 05:46:00,
2013-01-30 00:52:00,44.1,38.0,-100.00,North,-999,-999.0,-999.0,79,0.00,,,0.00,WSDL version 423,2013-01-30 05:52:00,
2013-01-30 00:58:00,44.1,38.0,-100.00,North,-999,-999.0,-999.0,79,0.00,,,0.00,WSDL version 423,2013-01-30 05:58:00,
2013-01-30 01:04:00,44.1,38.0,-100.00,North,-999,-999.0,-999.0,79,0.00,,,0.00,WSDL version 423,2013-01-30 06:04:00,
2013-01-30 01:10:00,44.1,38.2,-100.00,North,-999,-999.0,-999.0,80,0.00,,,0.00,WSDL version 423,2013-01-30 06:10:00,
2013-01-30 01:16:00,44.1,38.3,-100.00,North,-999,-999.0,-999.0,80,0.00,,,0.00,WSDL version 423,2013-01-30 06:16:00,
2013-01-30 01:22:00,44.1,38.0,-100.00,North,-999,-999.0,-999.0,79,0.00,,,0.00,WSDL version 423,2013-01-30 06:22:00,
2013-01-30 01:28:00,43.9,38.0,-100.00,North,-999,-999.0,-999.0,79,-99.99,,,-99.99,WSDL version 423,2013-01-30 06:28:00,
2013-01-30 01:34:00,43.8,37.8,-100.00,North,-999,-999.0,-999.0,79,-99.99,,,-99.99,WSDL version 423,2013-01-30 06:34:00,
2013-01-30 01:40:00,43.7,37.7,-100.00,North,-999,-999.0,-999.0,80,0.00,,,0.00,WSDL version 423,2013-01-30 06:40:00,
2013-01-30 01:46:00,43.7,37.9,-100.00,NW,315,0.0,0.0,80,0.00,,,0.00,WSDL version 423,2013-01-30 06:46:00,
2013-01-30 01:52:00,43.6,37.8,-100.00,SW,225,2.2,2.9,80,0.00,,,0.00,WSDL version 423,2013-01-30 06:52:00,
2013-01-30 01:58:00,43.6,37.8,-100.00,North,-999,-999.0,-999.0,80,0.00,,,0.00,WSDL version 423,2013-01-30 06:58:00,
2013-01-30 02:04:00,43.5,37.8,-100.00,North,-999,-999.0,-999.0,80,0.00,,,0.00,WSDL version 423,2013-01-30 07:04:00,
2013-01-30 02:10:00,43.5,37.8,-100.00,North,-999,-999.0,-999.0,80,0.00,,,0.00,WSDL version 423,2013-01-30 07:10:00,
2013-01-30 02:16:00,43.5,37.7,-100.00,North,-999,-999.0,-999.0,80,0.00,,,0.00,WSDL version 423,2013-01-30 07:16:00,
2013-01-30 02:22:00,43.3,37.6,-100.00,North,-999,-999.0,-999.0,80,0.00,,,0.00,WSDL version 423,2013-01-30 07:22:00,
2013-01-30 02:28:00,43.3,37.6,-100.00,North,-999,-999.0,-999.0,80,0.00,,,0.00,WSDL version 423,2013-01-30 07:28:00,
2013-01-30 02:34:00,43.2,37.6,-100.00,North,-999,-999.0,-999.0,80,0.00,,,0.00,WSDL version 423,2013-01-30 07:34:00,
2013-01-30 02:40:00,43.1,37.6,-100.00,North,-999,-999.0,-999.0,81,0.00,,,0.00,WSDL version 423,2013-01-30 07:40:00,
2013-01-30 02:46:00,43.0,37.6,-100.00,North,-999,-999.0,-999.0,81,-99.99,,,-99.99,WSDL version 423,2013-01-30 07:46:00,
2013-01-30 02:52:00,43.0,37.6,-100.00,North,-999,-999.0,-999.0,81,0.00,,,0.00,WSDL version 423,2013-01-30 07:52:00,
2013-01-30 02:58:00,43.0,37.6,-100.00,North,-999,-999.0,-999.0,81,0.00,,,0.00,WSDL version 423,2013-01-30 07:58:00,
2013-01-30 03:04:00,43.0,37.6,-100.00,North,-999,-999.0,-999.0,81,0.00,,,0.00,WSDL version 423,2013-01-30 08:04:00,
2013-01-30 03:10:00,43.0,37.6,-100.00,North,-999,-999.0,-999.0,81,0.00,,,0.00,WSDL version 423,2013-01-30 08:10:00,
2013-01-30 03:16:00,42.9,37.5,-100.00,North,-999,-999.0,-999.0,81,0.00,,,0.00,WSDL version 423,2013-01-30 08:16:00,
2013-01-30 03:22:00,42.9,37.7,-100.00,North,-999,-999.0,-999.0,82,0.00,,,0.00,WSDL version 423,2013-01-30 08:22:00,
2013-01-30 03:28:00,42.7,37.6,-100.00,North,-999,-999.0,-999.0,82,0.00,,,0.00,WSDL version 423,2013-01-30 08:28:00,
2013-01-30 03:34:00,42.7,37.5,-100.00,North,-999,-999.0,-999.0,82,0.00,,,0.00,WSDL version 423,2013-01-30 08:34:00,
2013-01-30 03:40:00,42.5,37.5,-100.00,North,-999,-999.0,-999.0,82,0.00,,,0.00,WSDL version 423,2013-01-30 08:40:00,
2013-01-30 03:46:00,42.4,37.4,-100.00,North,-999,-999.0,-999.0,82,0.00,,,0.00,WSDL version 423,2013-01-30 08:46:00,
2013-01-30 03:52:00,42.6,37.5,-100.00,North,-999,-999.0,-999.0,82,0.00,,,0.00,WSDL version 423,2013-01-30 08:52:00,
2013-01-30 03:58:00,42.6,37.6,-100.00,North,-999,-999.0,-999.0,82,0.00,,,0.00,WSDL version 423,2013-01-30 08:58:00,
2013-01-30 04:04:00,42.4,37.4,-100.00,North,-999,-999.0,-999.0,82,0.00,,,0.00,WSDL version 423,2013-01-30 09:04:00,
2013-01-30 04:10:00,42.4,37.4,-100.00,North,-999,-999.0,-999.0,82,0.00,,,0.00,WSDL version 423,2013-01-30 09:10:00,
2013-01-30 04:16:00,42.4,37.4,-100.00,North,-999,-999.0,-999.0,82,0.00,,,0.00,WSDL version 423,2013-01-30 09:16:00,
2013-01-30 04:22:00,42.4,37.4,-100.00,North,-999,-999.0,-999.0,82,0.00,,,0.00,WSDL version 423,2013-01-30 09:22:00,
2013-01-30 04:28:00,42.4,37.4,-100.00,North,-999,-999.0,-999.0,82,0.00,,,0.00,WSDL version 423,2013-01-30 09:28:00,
2013-01-30 04:34:00,42.4,37.4,-100.00,North,-999,-999.0,-999.0,82,0.00,,,0.00,WSDL version 423,2013-01-30 09:34:00,
2013-01-30 04:40:00,42.4,37.7,-100.00,NNW,338,0.0,0.0,83,0.00,,,0.00,WSDL version 423,2013-01-30 09:40:00,
2013-01-30 04:46:00,42.4,37.7,-100.00,North,-999,-999.0,-999.0,83,0.00,,,0.00,WSDL version 423,2013-01-30 09:46:00,
2013-01-30 04:52:00,42.4,37.8,-100.00,North,-999,-999.0,-999.0,83,0.00,,,0.00,WSDL version 423,2013-01-30 09:52:00,
2013-01-30 04:58:00,42.4,37.8,-100.00,North,-999,-999.0,-999.0,83,0.00,,,0.00,WSDL version 423,2013-01-30 09:58:00,
2013-01-30 05:04:00,42.4,37.8,-100.00,North,-999,-999.0,-999.0,83,0.00,,,0.00,WSDL version 423,2013-01-30 10:04:00,
2013-01-30 05:10:00,42.5,37.9,-100.00,North,-999,-999.0,-999.0,83,0.00,,,0.00,WSDL version 423,2013-01-30 10:10:00,
2013-01-30 05:16:00,42.5,37.8,-100.00,North,-999,-999.0,-999.0,83,0.00,,,0.00,WSDL version 423,2013-01-30 10:16:00,
2013-01-30 05:22:00,42.4,37.8,-100.00,North,-999,-999.0,-999.0,83,0.00,,,0.00,WSDL version 423,2013-01-30 10:22:00,
2013-01-30 05:28:00,42.4,37.8,-100.00,North,-999,-999.0,-999.0,83,0.00,,,0.00,WSDL version 423,2013-01-30 10:28:00,
2013-01-30 05:34:00,42.4,37.9,-100.00,North,-999,-999.0,-999.0,84,0.00,,,0.00,WSDL version 423,2013-01-30 10:34:00,
2013-01-30 05:40:00,42.3,38.0,-100.00,North,-999,-999.0,-999.0,84,0.00,,,0.00,WSDL version 423,2013-01-30 10:40:00,
2013-01-30 05:46:00,42.3,37.9,-100.00,North,-999,-999.0,-999.0,84,0.00,,,0.00,WSDL version 423,2013-01-30 10:46:00,
2013-01-30 05:52:00,42.1,37.5,-100.00,North,-999,-999.0,-999.0,83,0.00,,,0.00,WSDL version 423,2013-01-30 10:52:00,
2013-01-30 05:58:00,42.1,37.4,-100.00,North,-999,-999.0,-999.0,83,0.00,,,0.00,WSDL version 423,2013-01-30 10:58:00,
2013-01-30 06:04:00,42.1,37.4,-100.00,North,-999,-999.0,-999.0,83,0.00,,,0.00,WSDL version 423,2013-01-30 11:04:00,
2013-01-30 06:10:00,42.1,37.4,-100.00,North,0,0.0,0.0,83,0.00,,,0.00,WSDL version 423,2013-01-30 11:10:00,
2013-01-30 06:16:00,42.1,37.4,-100.00,West,270,0.0,0.0,84,0.00,,,0.00,WSDL version 423,2013-01-30 11:16:00,
2013-01-30 06:22:00,42.1,37.6,-100.00,North,0,0.0,0.0,83,0.00,,,0.00,WSDL version 423,2013-01-30 11:22:00,
2013-01-30 06:28:00,42.1,37.7,-100.00,NW,315,0.0,0.0,84,0.00,,,0.00,WSDL version 423,2013-01-30 11:28:00,
2013-01-30 06:34:00,42.1,37.7,-100.00,WNW,297,0.0,0.0,84,0.00,,,0.00,WSDL version 423,2013-01-30 11:34:00,
2013-01-30 06:40:00,42.1,37.7,-100.00,West,270,0.0,0.0,84,0.00,,,0.00,WSDL version 423,2013-01-30 11:40:00,
2013-01-30 06:46:00,42.1,37.7,-100.00,West,270,0.0,0.0,84,0.00,,,0.00,WSDL version 423,2013-01-30 11:46:00,
2013-01-30 06:52:00,42.1,37.7,-100.00,West,270,0.0,0.0,84,0.00,,,0.00,WSDL version 423,2013-01-30 11:52:00,
2013-01-30 06:58:00,42.1,37.7,-100.00,WNW,296,0.0,0.0,84,0.00,,,0.00,WSDL version 423,2013-01-30 11:58:00,
2013-01-30 07:04:00,42.1,37.7,-100.00,NW,315,0.0,0.0,84,0.00,,,0.00,WSDL version 423,2013-01-30 12:04:00,
2013-01-30 07:10:00,42.1,37.7,-100.00,NW,315,0.0,0.0,84,0.00,,,0.00,WSDL version 423,2013-01-30 12:10:00,
2013-01-30 07:16:00,42.1,37.7,-100.00,West,281,0.0,0.0,84,0.00,,,0.00,WSDL version 423,2013-01-30 12:16:00,
2013-01-30 07:22:00,42.1,37.7,-100.00,SW,225,0.0,0.0,84,0.00,,,0.00,WSDL version 423,2013-01-30 12:22:00,
2013-01-30 07:28:00,42.1,37.7,-100.00,SW,225,0.0,0.0,84,0.00,,,0.00,WSDL version 423,2013-01-30 12:28:00,
2013-01-30 07:34:00,42.2,37.8,-100.00,SW,225,0.0,0.0,84,0.00,,,0.00,WSDL version 423,2013-01-30 12:34:00,
2013-01-30 07:40:00,42.3,37.9,-100.00,SW,225,0.0,0.0,84,0.00,,,0.00,WSDL version 423,2013-01-30 12:40:00,
2013-01-30 07:46:00,42.4,38.1,-100.00,SW,225,0.0,0.0,84,0.00,,,0.00,WSDL version 423,2013-01-30 12:46:00,
2013-01-30 07:52:00,42.4,38.1,-100.00,SW,225,0.0,0.0,84,0.00,,,0.00,WSDL version 423,2013-01-30 12:52:00,
2013-01-30 07:58:00,42.5,38.1,-100.00,SW,225,0.0,0.0,84,0.00,,,0.00,WSDL version 423,2013-01-30 12:58:00,
2013-01-30 08:04:00,42.8,38.4,-100.00,SW,225,0.0,0.0,84,0.00,,,0.00,WSDL version 423,2013-01-30 13:04:00,
2013-01-30 08:10:00,42.9,38.5,-100.00,SW,225,0.0,0.0,84,0.00,,,0.00,WSDL version 423,2013-01-30 13:10:00,
2013-01-30 08:16:00,43.0,38.7,-100.00,SW,225,0.0,0.0,84,0.00,,,0.00,WSDL version 423,2013-01-30 13:16:00,
2013-01-30 08:22:00,43.3,39.0,-100.00,NW,315,0.0,0.0,84,0.00,,,0.00,WSDL version 423,2013-01-30 13:22:00,
2013-01-30 08:28:00,43.7,39.3,-100.00,NW,315,0.0,0.0,84,0.00,,,0.00,WSDL version 423,2013-01-30 13:28:00,
2013-01-30 08:34:00,43.8,39.4,-100.00,NW,315,0.0,0.0,84,0.00,,,0.00,WSDL version 423,2013-01-30 13:34:00,
2013-01-30 08:40:00,44.0,39.6,-100.00,NW,315,0.0,0.0,84,0.00,,,0.00,WSDL version 423,2013-01-30 13:40:00,
2013-01-30 08:46:00,44.4,40.1,-100.00,NW,315,0.0,0.0,84,0.00,,,0.00,WSDL version 423,2013-01-30 13:46:00,
2013-01-30 08:52:00,44.7,40.5,-100.00,ESE,118,0.0,0.0,86,0.00,,,0.00,WSDL version 423,2013-01-30 13:52:00,
2013-01-30 08:58:00,45.1,41.1,-100.00,SSE,148,0.0,0.0,86,0.00,,,0.00,WSDL version 423,2013-01-30 13:58:00,
2013-01-30 09:04:00,45.3,41.3,-100.00,SW,225,0.0,0.0,86,0.00,,,0.00,WSDL version 423,2013-01-30 14:04:00,
2013-01-30 09:10:00,45.7,41.6,-100.00,SW,225,0.0,0.0,86,0.00,,,0.00,WSDL version 423,2013-01-30 14:10:00,
2013-01-30 09:16:00,46.0,41.9,-100.00,SSW,203,0.0,0.0,86,0.00,,,0.00,WSDL version 423,2013-01-30 14:16:00,
2013-01-30 09:22:00,46.2,42.1,-100.00,SW,225,0.0,0.0,86,0.00,,,0.00,WSDL version 423,2013-01-30 14:22:00,
2013-01-30 09:28:00,46.2,42.1,-100.00,South,186,0.0,0.0,86,0.00,,,0.00,WSDL version 423,2013-01-30 14:28:00,
2013-01-30 09:34:00,46.4,42.3,-100.00,WNW,303,0.0,0.0,86,0.00,,,0.00,WSDL version 423,2013-01-30 14:34:00,
2013-01-30 09:40:00,46.6,42.5,-100.00,NW,315,0.0,0.0,86,0.00,,,0.00,WSDL version 423,2013-01-30 14:40:00,
2013-01-30 09:46:00,46.8,42.7,-100.00,NW,315,0.0,0.0,86,0.00,,,0.00,WSDL version 423,2013-01-30 14:46:00,
2013-01-30 09:52:00,47.2,43.1,-100.00,West,278,0.0,2.7,86,0.00,,,0.00,WSDL version 423,2013-01-30 14:52:00,
2013-01-30 09:58:00,47.3,43.2,-100.00,West,270,0.5,2.9,86,0.00,,,0.00,WSDL version 423,2013-01-30 14:58:00,
2013-01-30 10:04:00,47.4,43.3,-100.00,NNW,341,0.4,2.9,86,0.00,,,0.00,WSDL version 423,2013-01-30 15:04:00,
2013-01-30 10:10:00,47.9,43.8,-100.00,NW,315,0.0,2.5,86,0.00,,,0.00,WSDL version 423,2013-01-30 15:10:00,
2013-01-30 10:16:00,48.2,43.8,-100.00,West,278,0.3,2.2,84,0.00,,,0.00,WSDL version 423,2013-01-30 15:16:00,
2013-01-30 10:22:00,48.4,44.0,-100.00,WNW,301,0.0,2.2,84,0.00,,,0.00,WSDL version 423,2013-01-30 15:22:00,
2013-01-30 10:28:00,48.6,44.1,-100.00,NW,312,0.7,2.7,84,0.00,,,0.00,WSDL version 423,2013-01-30 15:28:00,
2013-01-30 10:34:00,48.7,44.3,-100.00,WNW,300,2.1,3.4,84,0.00,,,0.00,WSDL version 423,2013-01-30 15:34:00,
2013-01-30 10:40:00,48.9,44.4,-100.00,West,276,0.0,3.4,84,0.00,,,0.00,WSDL version 423,2013-01-30 15:40:00,
2013-01-30 10:46:00,49.0,44.5,-100.00,West,275,0.0,0.0,83,0.00,,,0.00,WSDL version 423,2013-01-30 15:46:00,
2013-01-30 10:52:00,49.2,44.5,-100.00,NW,315,0.0,1.1,83,0.00,,,0.00,WSDL version 423,2013-01-30 15:52:00,
2013-01-30 10:58:00,49.5,44.7,-100.00,East,101,0.0,0.0,84,0.00,,,0.00,WSDL version 423,2013-01-30 15:58:00,
2013-01-30 11:04:00,49.6,44.7,-100.00,West,273,0.0,0.9,83,0.00,,,0.00,WSDL version 423,2013-01-30 16:04:00,
2013-01-30 11:10:00,49.8,45.0,-100.00,West,265,0.5,2.7,83,0.00,,,0.00,WSDL version 423,2013-01-30 16:10:00,
2013-01-30 11:16:00,49.8,45.0,-100.00,South,180,0.0,2.7,83,0.00,,,0.00,WSDL version 423,2013-01-30 16:16:00,
2013-01-30 11:22:00,50.1,45.2,-100.00,South,180,0.0,0.0,83,0.00,,,0.00,WSDL version 423,2013-01-30 16:22:00,
2013-01-30 11:28:00,50.3,45.4,-100.00,East,90,0.0,1.1,83,0.00,,,0.00,WSDL version 423,2013-01-30 16:28:00,
2013-01-30 11:34:00,50.6,45.5,-100.00,WNW,293,0.0,2.0,83,0.00,,,0.00,WSDL version 423,2013-01-30 16:34:00,
2013-01-30 11:40:00,50.9,45.8,-100.00,NNW,348,0.6,2.9,83,0.00,,,0.00,WSDL version 423,2013-01-30 16:40:00,
2013-01-30 11:46:00,51.1,45.9,-100.00,West,276,0.0,2.2,82,0.00,,,0.00,WSDL version 423,2013-01-30 16:46:00,
2013-01-30 11:52:00,51.4,46.2,-100.00,West,270,0.0,0.0,82,0.00,,,0.00,WSDL version 423,2013-01-30 16:52:00,
2013-01-30 11:58:00,51.8,46.5,-100.00,WNW,295,0.0,0.0,82,0.00,,,0.00,WSDL version 423,2013-01-30 16:58:00,
2013-01-30 12:04:00,52.1,46.7,-100.00,NW,323,0.0,1.3,81,0.00,,,0.00,WSDL version 423,2013-01-30 17:04:00,
2013-01-30 12:10:00,52.5,46.9,-100.00,West,275,0.0,1.3,81,0.00,,,0.00,WSDL version 423,2013-01-30 17:10:00,
2013-01-30 12:16:00,52.9,47.3,-100.00,NW,320,0.0,0.0,81,0.00,,,0.00,WSDL version 423,2013-01-30 17:16:00,
2013-01-30 12:22:00,53.3,47.7,-100.00,NW,318,0.0,2.2,81,0.00,,,0.00,WSDL version 423,2013-01-30 17:22:00,
2013-01-30 12:28:00,53.8,47.7,-100.00,NW,315,0.0,0.0,80,0.00,,,0.00,WSDL version 423,2013-01-30 17:28:00,
2013-01-30 12:34:00,54.3,48.3,-100.00,NW,320,0.0,0.0,80,0.00,,,0.00,WSDL version 423,2013-01-30 17:34:00,
2013-01-30 12:40:00,55.1,49.0,-100.00,NNW,338,0.0,0.0,80,0.00,,,0.00,WSDL version 423,2013-01-30 17:40:00,
2013-01-30 12:46:00,55.6,49.2,-100.00,NW,304,0.0,0.0,79,0.00,,,0.00,WSDL version 423,2013-01-30 17:46:00,
2013-01-30 12:52:00,56.1,49.7,-100.00,SE,138,0.0,0.0,79,0.00,,,0.00,WSDL version 423,2013-01-30 17:52:00,
2013-01-30 12:58:00,56.6,50.2,-100.00,South,180,0.0,0.0,79,0.00,,,0.00,WSDL version 423,2013-01-30 17:58:00,
2013-01-30 13:04:00,56.8,50.4,-100.00,WNW,298,0.6,2.7,80,0.00,,,0.00,WSDL version 423,2013-01-30 18:04:00,
2013-01-30 13:10:00,57.8,51.6,-100.00,WSW,251,0.1,2.7,80,0.00,,,0.00,WSDL version 423,2013-01-30 18:10:00,
2013-01-30 13:16:00,58.6,52.8,-100.00,ESE,105,1.2,3.6,81,0.00,,,0.00,WSDL version 423,2013-01-30 18:16:00,
2013-01-30 13:22:00,59.5,53.7,-100.00,SW,222,1.0,3.6,81,0.00,,,0.00,WSDL version 423,2013-01-30 18:22:00,
2013-01-30 13:28:00,60.0,54.0,-100.00,NNE,17,1.5,3.6,81,0.00,,,0.00,WSDL version 423,2013-01-30 18:28:00,
2013-01-30 13:34:00,60.4,54.4,-100.00,South,180,0.7,3.1,80,0.00,,,0.00,WSDL version 423,2013-01-30 18:34:00,
2013-01-30 13:40:00,60.6,54.4,-100.00,SSW,211,0.7,4.3,80,0.00,,,0.00,WSDL version 423,2013-01-30 18:40:00,
2013-01-30 13:46:00,60.8,54.6,-100.00,SE,141,1.1,4.3,80,0.00,,,0.00,WSDL version 423,2013-01-30 18:46:00,
2013-01-30 13:52:00,61.0,54.7,-100.00,West,273,1.0,4.3,80,0.00,,,0.00,WSDL version 423,2013-01-30 18:52:00,
2013-01-30 13:58:00,61.2,54.6,-100.00,SE,141,1.3,3.6,79,0.00,,,0.00,WSDL version 423,2013-01-30 18:58:00,
2013-01-30 14:04:00,61.6,55.4,-100.00,SW,231,0.7,6.3,80,0.00,,,0.00,WSDL version 423,2013-01-30 19:04:00,
2013-01-30 14:10:00,61.9,55.4,-100.00,SW,215,2.2,5.6,79,0.00,,,0.00,WSDL version 423,2013-01-30 19:10:00,
2013-01-30 14:16:00,62.0,55.5,-100.00,WSW,240,1.1,3.4,79,0.00,,,0.00,WSDL version 423,2013-01-30 19:16:00,
2013-01-30 14:22:00,62.2,55.6,-100.00,NW,325,2.0,4.9,79,0.00,,,0.00,WSDL version 423,2013-01-30 19:22:00,
2013-01-30 14:28:00,62.3,55.7,-100.00,SW,228,1.3,3.8,79,0.00,,,0.00,WSDL version 423,2013-01-30 19:28:00,
2013-01-30 14:34:00,62.4,55.8,-100.00,West,262,1.1,3.8,79,0.00,,,0.00,WSDL version 423,2013-01-30 19:34:00,
2013-01-30 14:40:00,62.6,55.7,-100.00,SSE,154,1.1,4.7,78,0.00,,,0.00,WSDL version 423,2013-01-30 19:40:00,
2013-01-30 14:46:00,62.6,55.7,-100.00,WNW,298,1.4,5.6,78,0.00,,,0.00,WSDL version 423,2013-01-30 19:46:00,
2013-01-30 14:52:00,63.0,56.0,-100.00,NNW,344,1.5,4.5,78,0.00,,,0.00,WSDL version 423,2013-01-30 19:52:00,
2013-01-30 14:58:00,63.1,56.2,-100.00,SSE,165,1.4,4.5,78,0.00,,,0.00,WSDL version 423,2013-01-30 19:58:00,
2013-01-30 15:04:00,63.3,56.4,-100.00,South,188,1.5,4.3,78,0.00,,,0.00,WSDL version 423,2013-01-30 20:04:00,
2013-01-30 15:10:00,63.5,56.5,-100.00,WSW,257,2.8,4.3,78,0.00,,,0.00,WSDL version 423,2013-01-30 20:10:00,
2013-01-30 15:16:00,63.7,56.7,-100.00,WSW,239,2.9,7.8,78,0.00,,,0.00,WSDL version 423,2013-01-30 20:16:00,
2013-01-30 15:22:00,64.0,56.6,-100.00,SSW,203,2.7,7.8,77,0.00,,,0.00,WSDL version 423,2013-01-30 20:22:00,
2013-01-30 15:28:00,64.3,56.9,-100.00,SW,215,2.5,4.9,77,0.00,,,0.00,WSDL version 423,2013-01-30 20:28:00,
2013-01-30 15:34:00,64.4,56.7,-100.00,WSW,245,3.6,10.1,76,0.00,,,0.00,WSDL version 423,2013-01-30 20:34:00,
2013-01-30 15:40:00,64.6,56.9,-100.00,South,180,3.2,10.1,76,0.00,,,0.00,WSDL version 423,2013-01-30 20:40:00,
2013-01-30 15:46:00,65.1,57.3,-100.00,SW,223,3.0,6.5,75,0.00,,,0.00,WSDL version 423,2013-01-30 20:46:00,
2013-01-30 15:52:00,65.5,57.4,-100.00,SSW,194,3.6,10.7,75,0.00,,,0.00,WSDL version 423,2013-01-30 20:52:00,
2013-01-30 15:58:00,65.7,57.4,-100.00,SW,233,1.4,10.7,74,0.00,,,0.00,WSDL version 423,2013-01-30 20:58:00,
2013-01-30 16:04:00,65.7,57.2,-100.00,WSW,238,1.9,5.8,74,0.00,,,0.00,WSDL version 423,2013-01-30 21:04:00,
2013-01-30 16:10:00,65.8,57.3,-100.00,SW,214,2.0,5.8,74,0.00,,,0.00,WSDL version 423,2013-01-30 21:10:00,
2013-01-30 16:16:00,65.7,56.8,-100.00,SW,235,2.9,5.6,73,0.00,,,0.00,WSDL version 423,2013-01-30 21:16:00,
2013-01-30 16:22:00,65.6,56.7,-100.00,WSW,248,3.1,8.7,73,0.00,,,0.00,WSDL version 423,2013-01-30 21:22:00,
2013-01-30 16:28:00,65.6,56.7,-100.00,SSW,206,2.1,8.7,73,0.00,,,0.00,WSDL version 423,2013-01-30 21:28:00,
2013-01-30 16:34:00,65.6,56.8,-100.00,North,8,1.8,4.7,73,0.00,,,0.00,WSDL version 423,2013-01-30 21:34:00,
2013-01-30 16:40:00,65.5,56.5,-100.00,NNE,32,3.1,6.0,72,0.00,,,0.00,WSDL version 423,2013-01-30 21:40:00,
2013-01-30 16:46:00,65.7,56.8,-100.00,SSE,155,2.9,6.0,73,0.00,,,0.00,WSDL version 423,2013-01-30 21:46:00,
2013-01-30 16:52:00,65.6,56.4,-100.00,SW,233,2.7,5.8,72,0.00,,,0.00,WSDL version 423,2013-01-30 21:52:00,
2013-01-30 16:58:00,65.7,56.4,-100.00,South,191,3.8,7.6,72,0.00,,,0.00,WSDL version 423,2013-01-30 21:58:00,
2013-01-30 17:04:00,65.7,56.4,-100.00,WSW,245,2.3,7.6,72,0.00,,,0.00,WSDL version 423,2013-01-30 22:04:00,
2013-01-30 17:10:00,65.8,56.5,-100.00,ESE,110,3.0,5.4,72,0.00,,,0.00,WSDL version 423,2013-01-30 22:10:00,
2013-01-30 17:16:00,65.6,56.4,-100.00,SW,233,2.0,5.4,72,0.00,,,0.00,WSDL version 423,2013-01-30 22:16:00,
2013-01-30 17:22:00,65.4,56.2,-100.00,West,276,3.0,5.4,72,0.00,,,0.00,WSDL version 423,2013-01-30 22:22:00,
2013-01-30 17:28:00,65.1,55.9,-100.00,SW,218,1.5,5.4,72,0.00,,,0.00,WSDL version 423,2013-01-30 22:28:00,
2013-01-30 17:34:00,64.9,55.7,-100.00,SW,220,2.9,4.9,72,0.00,,,0.00,WSDL version 423,2013-01-30 22:34:00,
2013-01-30 17:40:00,64.7,55.4,-100.00,SW,219,1.4,4.9,72,0.00,,,0.00,WSDL version 423,2013-01-30 22:40:00,
2013-01-30 17:46:00,64.4,55.1,-100.00,SSW,195,2.7,6.9,72,0.00,,,0.00,WSDL version 423,2013-01-30 22:46:00,
2013-01-30 17:52:00,64.4,55.2,-100.00,West,273,1.3,6.9,72,0.00,,,0.00,WSDL version 423,2013-01-30 22:52:00,
2013-01-30 17:58:00,64.2,55.0,-100.00,WSW,242,2.6,6.7,72,0.00,,,0.00,WSDL version 423,2013-01-30 22:58:00,
2013-01-30 18:04:00,64.2,55.0,-100.00,WSW,239,1.7,6.7,72,0.00,,,0.00,WSDL version 423,2013-01-30 23:04:00,
2013-01-30 18:10:00,64.0,54.8,-100.00,SE,124,2.2,4.7,72,0.00,,,0.00,WSDL version 423,2013-01-30 23:10:00,
2013-01-30 18:16:00,63.7,54.6,-100.00,ESE,113,3.2,6.3,73,0.00,,,0.00,WSDL version 423,2013-01-30 23:16:00,
2013-01-30 18:22:00,63.3,54.5,-100.00,ESE,118,2.9,6.3,73,0.00,,,0.00,WSDL version 423,2013-01-30 23:22:00,
2013-01-30 18:28:00,62.8,54.4,-100.00,ESE,116,1.3,4.7,74,0.00,,,0.00,WSDL version 423,2013-01-30 23:28:00,
2013-01-30 18:34:00,62.3,54.2,-100.00,SE,124,0.0,4.7,75,0.00,,,0.00,WSDL version 423,2013-01-30 23:34:00,
2013-01-30 18:40:00,61.9,54.2,-100.00,SE,131,0.0,2.9,76,0.00,,,0.00,WSDL version 423,2013-01-30 23:40:00,
2013-01-30 18:46:00,61.7,54.4,-100.00,SE,135,0.0,2.9,77,0.00,,,0.00,WSDL version 423,2013-01-30 23:46:00,
2013-01-30 18:52:00,61.4,54.1,-100.00,ESE,113,0.0,3.1,77,0.00,,,0.00,WSDL version 423,2013-01-30 23:52:00,
2013-01-30 18:58:00,61.3,54.3,-100.00,ESE,113,0.0,0.9,78,0.00,,,0.00,WSDL version 423,2013-01-30 23:58:00,
2013-01-30 19:04:00,60.9,54.0,-100.00,South,180,0.0,0.0,78,0.00,,,0.00,WSDL version 423,2013-01-31 00:04:00,
2013-01-30 19:10:00,60.6,54.0,-100.00,West,270,0.0,0.0,79,0.00,,,0.00,WSDL version 423,2013-01-31 00:10:00,
2013-01-30 19:16:00,60.4,53.9,-100.00,NW,306,0.0,0.9,80,0.00,,,0.00,WSDL version 423,2013-01-31 00:16:00,
2013-01-30 19:22:00,60.1,53.9,-100.00,East,90,0.0,0.9,80,0.00,,,0.00,WSDL version 423,2013-01-31 00:22:00,
2013-01-30 19:28:00,59.8,53.6,-100.00,NNW,338,0.0,0.0,80,0.00,,,0.00,WSDL version 423,2013-01-31 00:28:00,
2013-01-30 19:34:00,59.6,53.5,-100.00,West,270,0.0,0.0,81,0.04,,,0.04,WSDL version 423,2013-01-31 00:34:00,
2013-01-30 19:40:00,59.4,53.6,-100.00,West,270,0.0,0.0,81,0.04,,,0.04,WSDL version 423,2013-01-31 00:40:00,
2013-01-30 19:46:00,59.4,53.6,-100.00,NW,311,0.0,0.0,81,0.04,,,0.04,WSDL version 423,2013-01-31 00:46:00,
2013-01-30 19:52:00,59.2,53.5,-100.00,West,270,0.0,0.0,81,0.04,,,0.04,WSDL version 423,2013-01-31 00:52:00,
2013-01-30 19:58:00,59.1,53.3,-100.00,West,270,0.0,0.0,81,0.04,,,0.04,WSDL version 423,2013-01-31 00:58:00,
2013-01-30 20:04:00,58.9,53.5,-100.00,NW,315,0.0,0.0,82,0.04,,,0.04,WSDL version 423,2013-01-31 01:04:00,
2013-01-30 20:10:00,58.8,53.4,-100.00,North,-999,-999.0,-999.0,82,0.04,,,0.04,WSDL version 423,2013-01-31 01:10:00,
2013-01-30 20:16:00,58.5,53.1,-100.00,NW,315,0.0,0.0,82,0.04,,,0.04,WSDL version 423,2013-01-31 01:16:00,
2013-01-30 20:22:00,58.2,52.8,-100.00,North,-999,-999.0,-999.0,82,0.04,,,0.04,WSDL version 423,2013-01-31 01:22:00,
2013-01-30 20:28:00,57.9,52.5,-100.00,North,-999,-999.0,-999.0,82,0.04,,,0.04,WSDL version 423,2013-01-31 01:28:00,
2013-01-30 20:34:00,57.5,52.1,-100.00,North,-999,-999.0,-999.0,82,0.00,,,0.04,WSDL version 423,2013-01-31 01:34:00,
2013-01-30 20:40:00,57.1,51.8,-100.00,North,-999,-999.0,-999.0,82,0.00,,,0.04,WSDL version 423,2013-01-31 01:40:00,
2013-01-30 20:46:00,56.8,51.5,-100.00,North,-999,-999.0,-999.0,82,0.00,,,0.04,WSDL version 423,2013-01-31 01:46:00,
2013-01-30 20:52:00,56.7,51.3,-100.00,West,270,0.0,0.0,82,0.00,,,0.04,WSDL version 423,2013-01-31 01:52:00,
2013-01-30 20:58:00,56.5,51.2,-100.00,West,270,0.0,0.0,82,0.00,,,0.04,WSDL version 423,2013-01-31 01:58:00,
2013-01-30 21:04:00,56.5,51.1,-100.00,North,-999,-999.0,-999.0,82,0.00,,,0.04,WSDL version 423,2013-01-31 02:04:00,
2013-01-30 21:10:00,56.3,51.0,-100.00,North,-999,-999.0,-999.0,82,0.00,,,0.04,WSDL version 423,2013-01-31 02:10:00,
2013-01-30 21:16:00,56.3,51.0,-100.00,West,270,0.0,0.0,83,0.00,,,0.04,WSDL version 423,2013-01-31 02:16:00,
2013-01-30 21:22:00,56.3,51.3,-100.00,North,-999,-999.0,-999.0,83,0.00,,,0.04,WSDL version 423,2013-01-31 02:22:00,
2013-01-30 21:28:00,56.3,51.3,-100.00,North,-999,-999.0,-999.0,83,0.00,,,0.04,WSDL version 423,2013-01-31 02:28:00,
2013-01-30 21:34:00,56.5,51.5,-100.00,North,-999,-999.0,-999.0,83,0.00,,,0.04,WSDL version 423,2013-01-31 02:34:00,
2013-01-30 21:40:00,56.8,51.8,-100.00,North,-999,-999.0,-999.0,83,0.00,,,0.04,WSDL version 423,2013-01-31 02:40:00,
2013-01-30 21:46:00,57.0,52.0,-100.00,North,-999,-999.0,-999.0,83,0.00,,,0.04,WSDL version 423,2013-01-31 02:46:00,
2013-01-30 21:52:00,57.3,52.3,-100.00,NE,45,2.0,3.6,83,0.00,,,0.04,WSDL version 423,2013-01-31 02:52:00,
2013-01-30 21:58:00,57.6,52.6,-100.00,North,360,0.7,3.6,83,0.00,,,0.04,WSDL version 423,2013-01-31 02:58:00,
2013-01-30 22:04:00,58.1,53.1,-100.00,North,-999,-999.0,-999.0,83,0.00,,,0.04,WSDL version 423,2013-01-31 03:04:00,
2013-01-30 22:10:00,59.0,54.3,-100.00,North,-999,-999.0,-999.0,84,0.00,,,0.04,WSDL version 423,2013-01-31 03:10:00,
2013-01-30 22:16:00,59.5,54.4,-100.00,North,-999,-999.0,-999.0,83,0.00,,,0.04,WSDL version 423,2013-01-31 03:16:00,
2013-01-30 22:22:00,59.7,54.6,-100.00,North,-999,-999.0,-999.0,83,0.00,,,0.04,WSDL version 423,2013-01-31 03:22:00,
2013-01-30 22:28:00,59.6,54.4,-100.00,NW,315,2.0,2.0,82,0.00,,,0.04,WSDL version 423,2013-01-31 03:28:00,
2013-01-30 22:34:00,59.5,54.1,-100.00,West,259,0.7,0.9,82,0.00,,,0.04,WSDL version 423,2013-01-31 03:34:00,
2013-01-30 22:40:00,59.7,54.4,-100.00,NW,315,2.5,2.5,83,0.00,,,0.04,WSDL version 423,2013-01-31 03:40:00,
2013-01-30 22:46:00,60.0,54.7,-100.00,SW,233,2.6,3.6,82,0.00,,,0.04,WSDL version 423,2013-01-31 03:46:00,
2013-01-30 22:52:00,60.3,54.9,-100.00,SSW,203,1.3,4.7,82,0.00,,,0.04,WSDL version 423,2013-01-31 03:52:00,
2013-01-30 22:58:00,60.5,55.1,-100.00,SW,231,3.1,4.3,82,0.00,,,0.04,WSDL version 423,2013-01-31 03:58:00,
2013-01-30 23:04:00,60.9,55.5,-100.00,WNW,293,3.7,5.8,82,0.00,,,0.04,WSDL version 423,2013-01-31 04:04:00,
2013-01-30 23:10:00,61.0,55.2,-100.00,NW,304,3.0,6.3,81,0.00,,,0.04,WSDL version 423,2013-01-31 04:10:00,
2013-01-30 23:16:00,61.0,55.2,-100.00,South,180,2.9,7.8,81,0.00,,,0.04,WSDL version 423,2013-01-31 04:16:00,
2013-01-30 23:22:00,61.0,55.2,-100.00,West,270,4.7,7.8,81,0.00,,,0.04,WSDL version 423,2013-01-31 04:22:00,
2013-01-30 23:28:00,61.2,55.3,-100.00,SW,225,3.0,6.3,81,0.00,,,0.04,WSDL version 423,2013-01-31 04:28:00,
2013-01-30 23:34:00,61.0,55.2,-100.00,SSW,203,3.8,4.9,81,0.00,,,0.04,WSDL version 423,2013-01-31 04:34:00,
2013-01-30 23:40:00,61.0,55.2,-100.00,WSW,240,3.3,5.4,81,0.00,,,0.04,WSDL version 423,2013-01-31 04:40:00,
2013-01-30 23:46:00,61.0,55.2,-100.00,South,180,3.0,6.3,81,0.00,,,0.04,WSDL version 423,2013-01-31 04:46:00,
2013-01-30 23:52:00,61.1,55.3,-100.00,WSW,248,2.5,6.5,81,0.00,,,0.04,WSDL version 423,2013-01-31 04:52:00,
2013-01-30 23:58:00,61.0,55.2,-100.00,WSW,245,2.8,6.3,82,0.00,,,0.00,WSDL version 423,2013-01-31 04:58:00,